Time;durP1;ratioP1;P1;durP2;ratioP2;P2;SDS_P1;SDS_P2;PMS_P1;PMS_P2;Temp;Humidity;BMP_temperature;BMP_pressure;BME280_temperature;BME280_humidity;BME280_pressure;Samples;Min_cycle;Max_cycle;Signal;HPM_P1;HPM_P2
2021/01/02 00:00:20;;;;;;;4.17;3.90;;;;;;;;;;6259472;22;20779;-63
2021/01/02 00:02:47;;;;;;;1.07;0.97;;;;;;;;;;6261214;22;20157;-63
2021/01/02 00:05:22;;;;;;;0.63;0.43;;;;;;;;;;6259486;22;20210;-63
2021/01/02 00:08:02;;;;;;;1.33;0.30;;;;;;;;;;6261023;22;20742;-63
2021/01/02 00:10:31;;;;;;;3.53;0.20;;;;;;;;;;6259413;22;20158;-63
2021/01/02 00:13:13;;;;;;;0.93;0.10;;;;;;;;;;6259292;22;20161;-63
2021/01/02 00:15:57;;;;;;;7.73;0.83;;;;;;;;;;6258564;22;20158;-63
2021/01/02 00:18:24;;;;;;;1.20;0.53;;;;;;;;;;6258601;22;20259;-63
2021/01/02 00:21:09;;;;;;;0.00;0.00;;;;;;;;;;6254830;22;20162;-63
2021/01/02 00:23:51;;;;;;;2.77;0.63;;;;;;;;;;6252576;22;20158;-62
2021/01/02 00:26:26;;;;;;;0.57;0.00;;;;;;;;;;6256969;22;20169;-63
2021/01/02 00:28:53;;;;;;;3.30;1.20;;;;;;;;;;6257814;22;20154;-64
2021/01/02 00:31:25;;;;;;;2.63;1.93;;;;;;;;;;6255096;22;20404;-63
2021/01/02 00:34:15;;;;;;;0.33;0.33;;;;;;;;;;6254782;22;20362;-64
2021/01/02 00:36:41;;;;;;;2.50;0.33;;;;;;;;;;6256876;22;20161;-64
2021/01/02 00:39:13;;;;;;;1.80;0.57;;;;;;;;;;6258123;22;20274;-63
2021/01/02 00:41:40;;;;;;;2.47;0.40;;;;;;;;;;6259149;22;20187;-62
2021/01/02 00:44:12;;;;;;;0.00;0.00;;;;;;;;;;6257017;22;20338;-62
2021/01/02 00:46:40;;;;;;;6.37;5.77;;;;;;;;;;6260213;22;20154;-62
2021/01/02 00:49:08;;;;;;;0.10;0.10;;;;;;;;;;6254459;22;20576;-59
2021/01/02 00:51:39;;;;;;;3.10;1.00;;;;;;;;;;6257530;22;20169;-59
2021/01/02 00:54:32;;;;;;;0.10;0.10;;;;;;;;;;6257789;22;20896;-59
2021/01/02 00:57:06;;;;;;;1.37;1.30;;;;;;;;;;6249523;22;20172;-61
2021/01/02 00:59:49;;;;;;;12.23;0.87;;;;;;;;;;6258240;22;20273;-62
2021/01/02 01:02:34;;;;;;;1.30;0.57;;;;;;;;;;6258973;22;20245;-63
2021/01/02 01:05:07;;;;;;;0.53;0.23;;;;;;;;;;6256381;22;20201;-64
2021/01/02 01:07:35;;;;;;;3.60;1.13;;;;;;;;;;6260150;22;20162;-65
2021/01/02 01:10:03;;;;;;;1.40;0.80;;;;;;;;;;6257207;22;20943;-64
2021/01/02 01:12:30;;;;;;;0.53;0.40;;;;;;;;;;6254002;22;20166;-65
2021/01/02 01:14:56;;;;;;;16.93;6.17;;;;;;;;;;6257937;22;20161;-65
2021/01/02 01:17:24;;;;;;;0.80;0.50;;;;;;;;;;6258406;22;20171;-66
2021/01/02 01:19:56;;;;;;;0.57;0.20;;;;;;;;;;6257334;22;20361;-66
2021/01/02 01:22:27;;;;;;;1.10;0.47;;;;;;;;;;6257730;22;20243;-67
2021/01/02 01:25:02;;;;;;;1.43;0.57;;;;;;;;;;6257511;22;20162;-61
2021/01/02 01:27:31;;;;;;;0.10;0.10;;;;;;;;;;6256348;22;20183;-66
2021/01/02 01:29:59;;;;;;;0.13;0.13;;;;;;;;;;6259414;22;20172;-60
2021/01/02 01:32:26;;;;;;;1.70;0.83;;;;;;;;;;6259035;22;20651;-62
2021/01/02 01:35:00;;;;;;;5.07;3.27;;;;;;;;;;6257419;22;20845;-61
2021/01/02 01:37:32;;;;;;;0.20;0.20;;;;;;;;;;6258815;22;20166;-60
2021/01/02 01:40:01;;;;;;;0.53;0.23;;;;;;;;;;6259436;22;20280;-69
2021/01/02 01:42:44;;;;;;;0.30;0.27;;;;;;;;;;6259284;22;20261;-60
2021/01/02 01:45:17;;;;;;;0.33;0.33;;;;;;;;;;6259215;22;20865;-59
2021/01/02 01:47:45;;;;;;;9.50;0.20;;;;;;;;;;6257574;22;20278;-61
2021/01/02 01:50:15;;;;;;;0.83;0.00;;;;;;;;;;6259120;22;20394;-60
2021/01/02 01:52:53;;;;;;;5.00;1.23;;;;;;;;;;6254187;22;20172;-60
2021/01/02 01:55:20;;;;;;;3.40;0.90;;;;;;;;;;6256670;22;20169;-60
2021/01/02 01:57:48;;;;;;;2.10;1.50;;;;;;;;;;6258913;22;20165;-53
2021/01/02 02:00:19;;;;;;;0.00;0.00;;;;;;;;;;6260708;22;20166;-63
2021/01/02 02:02:46;;;;;;;4.30;2.40;;;;;;;;;;6256781;22;20158;-63
2021/01/02 02:05:13;;;;;;;0.10;0.00;;;;;;;;;;6258445;22;20197;-64
2021/01/02 02:07:42;;;;;;;0.40;0.40;;;;;;;;;;6256282;22;20161;-62
2021/01/02 02:10:09;;;;;;;0.20;0.20;;;;;;;;;;6256515;22;20211;-63
2021/01/02 02:12:36;;;;;;;1.60;0.20;;;;;;;;;;6259356;22;20165;-62
2021/01/02 02:15:02;;;;;;;3.40;1.00;;;;;;;;;;6259255;22;20158;-62
2021/01/02 02:17:38;;;;;;;13.93;1.07;;;;;;;;;;6256965;22;20304;-70
2021/01/02 02:20:18;;;;;;;0.50;0.10;;;;;;;;;;6258293;22;20193;-71
2021/01/02 02:22:45;;;;;;;0.00;0.00;;;;;;;;;;6259286;22;20149;-72
2021/01/02 02:25:16;;;;;;;0.20;0.20;;;;;;;;;;6259061;22;20245;-71
2021/01/02 02:27:43;;;;;;;1.83;0.53;;;;;;;;;;6260019;22;20161;-73
2021/01/02 02:30:33;;;;;;;3.50;1.27;;;;;;;;;;6261498;22;20662;-72
2021/01/02 02:33:01;;;;;;;12.10;2.13;;;;;;;;;;6259228;22;20165;-71
2021/01/02 02:35:28;;;;;;;1.33;0.17;;;;;;;;;;6260085;22;20161;-69
2021/01/02 02:37:54;;;;;;;0.03;0.03;;;;;;;;;;6260071;22;20268;-68
2021/01/02 02:40:21;;;;;;;0.03;0.00;;;;;;;;;;6259356;22;20638;-69
2021/01/02 02:42:48;;;;;;;1.00;0.90;;;;;;;;;;6260380;22;20197;-69
2021/01/02 02:45:16;;;;;;;0.47;0.30;;;;;;;;;;6258492;22;20162;-70
2021/01/02 02:47:44;;;;;;;2.77;0.20;;;;;;;;;;6259225;22;20158;-69
2021/01/02 02:50:18;;;;;;;3.10;1.40;;;;;;;;;;6260285;22;20188;-70
2021/01/02 02:52:48;;;;;;;1.70;0.57;;;;;;;;;;6258279;22;20809;-69
2021/01/02 02:55:14;;;;;;;0.00;0.00;;;;;;;;;;6260697;22;20169;-70
2021/01/02 02:57:48;;;;;;;0.00;0.00;;;;;;;;;;6260517;22;20222;-70
2021/01/02 03:00:15;;;;;;;0.20;0.20;;;;;;;;;;6259046;22;20252;-70
2021/01/02 03:02:45;;;;;;;2.67;0.30;;;;;;;;;;6259887;22;20466;-71
2021/01/02 03:05:12;;;;;;;6.27;0.47;;;;;;;;;;6260200;22;20205;-71
2021/01/02 03:07:43;;;;;;;2.17;1.73;;;;;;;;;;6260003;22;20158;-73
2021/01/02 03:10:10;;;;;;;2.27;1.87;;;;;;;;;;6259849;22;20467;-72
2021/01/02 03:12:41;;;;;;;0.47;0.47;;;;;;;;;;6259105;22;20165;-71
2021/01/02 03:15:10;;;;;;;2.37;0.60;;;;;;;;;;6259833;22;20925;-66
2021/01/02 03:17:42;;;;;;;1.90;0.60;;;;;;;;;;6261274;22;20181;-66
2021/01/02 03:20:13;;;;;;;0.00;0.00;;;;;;;;;;6260440;22;20213;-69
2021/01/02 03:22:44;;;;;;;0.10;0.10;;;;;;;;;;6261078;22;20167;-71
2021/01/02 03:25:13;;;;;;;5.07;1.73;;;;;;;;;;6260321;22;20663;-72
2021/01/02 03:27:44;;;;;;;0.53;0.53;;;;;;;;;;6263067;22;20228;-74
2021/01/02 03:30:12;;;;;;;0.00;0.00;;;;;;;;;;6260679;22;20319;-69
2021/01/02 03:32:41;;;;;;;0.20;0.20;;;;;;;;;;6262780;22;20185;-68
2021/01/02 03:35:19;;;;;;;1.73;1.00;;;;;;;;;;6261007;22;20166;-69
2021/01/02 03:37:46;;;;;;;0.10;0.10;;;;;;;;;;6262945;22;20183;-72
2021/01/02 03:40:14;;;;;;;0.00;0.00;;;;;;;;;;6262685;22;20189;-70
2021/01/02 03:42:43;;;;;;;0.10;0.10;;;;;;;;;;6262667;22;20182;-72
2021/01/02 03:45:11;;;;;;;1.60;0.30;;;;;;;;;;6261655;22;20236;-65
2021/01/02 03:47:51;;;;;;;3.73;0.93;;;;;;;;;;6260962;22;20391;-70
2021/01/02 03:50:24;;;;;;;0.10;0.10;;;;;;;;;;6260527;22;20185;-66
2021/01/02 03:52:52;;;;;;;0.10;0.10;;;;;;;;;;6260830;22;20162;-69
2021/01/02 03:55:19;;;;;;;2.93;0.70;;;;;;;;;;6262779;22;20259;-64
2021/01/02 03:57:45;;;;;;;0.33;0.33;;;;;;;;;;6261095;22;20316;-67
2021/01/02 04:00:13;;;;;;;4.20;0.53;;;;;;;;;;6256763;22;20196;-67
2021/01/02 04:02:40;;;;;;;0.93;0.67;;;;;;;;;;6256932;22;20578;-63
2021/01/02 04:05:06;;;;;;;0.00;0.00;;;;;;;;;;6255343;22;20201;-63
2021/01/02 04:07:33;;;;;;;4.00;1.30;;;;;;;;;;6259806;22;20169;-63
2021/01/02 04:10:00;;;;;;;4.83;0.40;;;;;;;;;;6259690;22;20162;-62
2021/01/02 04:12:26;;;;;;;2.27;0.30;;;;;;;;;;6256230;22;20165;-63
2021/01/02 04:14:53;;;;;;;6.23;0.20;;;;;;;;;;6258185;22;20228;-63
2021/01/02 04:17:19;;;;;;;0.00;0.00;;;;;;;;;;6259998;22;20188;-62
2021/01/02 04:19:46;;;;;;;2.00;0.47;;;;;;;;;;6260767;22;20675;-63
2021/01/02 04:22:13;;;;;;;1.67;0.80;;;;;;;;;;6260913;22;20571;-63
2021/01/02 04:24:39;;;;;;;1.27;0.37;;;;;;;;;;6260659;22;20153;-67
2021/01/02 04:27:07;;;;;;;0.10;0.10;;;;;;;;;;6259754;22;20245;-68
2021/01/02 04:29:34;;;;;;;1.30;0.10;;;;;;;;;;6260182;22;20162;-67
2021/01/02 04:32:02;;;;;;;12.77;5.23;;;;;;;;;;6259255;22;20161;-68
2021/01/02 04:34:29;;;;;;;0.17;0.10;;;;;;;;;;6259778;22;20180;-68
2021/01/02 04:36:55;;;;;;;0.33;0.33;;;;;;;;;;6260138;22;20244;-68
2021/01/02 04:39:22;;;;;;;2.63;0.53;;;;;;;;;;6260532;22;20197;-69
2021/01/02 04:41:49;;;;;;;6.20;0.50;;;;;;;;;;6260370;22;20161;-68
2021/01/02 04:44:17;;;;;;;1.43;0.37;;;;;;;;;;6259642;22;20161;-68
2021/01/02 14:23:40;;;;;;;1.07;0.10;;;;;;;;;;5130140;27;20300;-66
2021/01/02 14:26:07;;;;;;;0.73;0.23;;;;;;;;;;5128867;27;20172;-66
2021/01/02 14:28:34;;;;;;;0.27;0.27;;;;;;;;;;5118306;27;20212;-65
2021/01/02 14:31:00;;;;;;;3.10;0.27;;;;;;;;;;5124664;27;20200;-77
2021/01/02 14:33:27;;;;;;;3.70;0.20;;;;;;;;;;5121720;27;20192;-75
2021/01/02 14:35:58;;;;;;;2.57;1.87;;;;;;;;;;5118151;27;20212;-79
2021/01/02 14:38:24;;;;;;;0.33;0.10;;;;;;;;;;5119246;28;20181;-77
2021/01/02 14:40:51;;;;;;;0.23;0.23;;;;;;;;;;5118571;28;20268;-74
2021/01/02 14:43:18;;;;;;;0.87;0.67;;;;;;;;;;5119785;28;20245;-77
2021/01/02 14:45:47;;;;;;;6.10;1.13;;;;;;;;;;5117205;28;20200;-77
2021/01/02 14:48:14;;;;;;;0.43;0.30;;;;;;;;;;5122517;28;20756;-76
2021/01/02 14:50:43;;;;;;;0.00;0.00;;;;;;;;;;5112450;27;20280;-77
2021/01/02 14:53:15;;;;;;;7.13;4.33;;;;;;;;;;5116883;28;20184;-76
2021/01/02 14:55:42;;;;;;;1.13;1.13;;;;;;;;;;5117688;28;20201;-76
2021/01/02 14:58:09;;;;;;;0.00;0.00;;;;;;;;;;5118593;27;20208;-75
2021/01/02 15:00:35;;;;;;;0.10;0.10;;;;;;;;;;5123445;27;20196;-75
2021/01/02 15:03:02;;;;;;;0.00;0.00;;;;;;;;;;5113939;27;20195;-76
2021/01/02 15:05:28;;;;;;;0.00;0.00;;;;;;;;;;5115735;28;20267;-78
2021/01/02 15:07:55;;;;;;;0.00;0.00;;;;;;;;;;5096770;28;20314;-76
2021/01/02 15:10:29;;;;;;;0.73;0.40;;;;;;;;;;5118292;28;20206;-77
2021/01/02 15:12:55;;;;;;;0.10;0.10;;;;;;;;;;5116864;27;20205;-78
2021/01/02 15:15:22;;;;;;;0.00;0.00;;;;;;;;;;5116317;27;20297;-76
2021/01/02 15:17:49;;;;;;;4.30;2.00;;;;;;;;;;5123215;27;20670;-75
2021/01/02 15:20:16;;;;;;;2.13;0.30;;;;;;;;;;5112662;27;20197;-76
2021/01/02 15:22:42;;;;;;;0.20;0.20;;;;;;;;;;5111495;27;20218;-75
2021/01/02 15:25:09;;;;;;;2.63;0.30;;;;;;;;;;5101852;27;20174;-76
2021/01/02 15:27:36;;;;;;;0.17;0.17;;;;;;;;;;5100847;27;20245;-75
2021/01/02 15:30:07;;;;;;;0.00;0.00;;;;;;;;;;5104550;27;20867;-76
2021/01/02 15:32:35;;;;;;;0.00;0.00;;;;;;;;;;5105314;27;20287;-77
2021/01/02 15:35:03;;;;;;;0.10;0.10;;;;;;;;;;5103155;27;20181;-74
2021/01/02 15:37:30;;;;;;;0.00;0.00;;;;;;;;;;5101302;27;20177;-66
2021/01/02 15:39:58;;;;;;;10.63;2.13;;;;;;;;;;5101862;27;20204;-75
2021/01/02 15:42:36;;;;;;;0.00;0.00;;;;;;;;;;5103705;28;20537;-74
2021/01/02 15:45:03;;;;;;;0.47;0.23;;;;;;;;;;5102511;28;20223;-75
2021/01/02 15:47:30;;;;;;;0.13;0.13;;;;;;;;;;5101490;28;20246;-64
2021/01/02 15:49:57;;;;;;;0.63;0.10;;;;;;;;;;5101030;28;20181;-66
2021/01/02 15:52:34;;;;;;;0.00;0.00;;;;;;;;;;5097577;28;20282;-65
2021/01/02 15:55:00;;;;;;;0.33;0.33;;;;;;;;;;5103226;27;20200;-65
2021/01/02 15:57:28;;;;;;;4.30;2.40;;;;;;;;;;5102535;27;20208;-66
2021/01/02 15:59:54;;;;;;;0.53;0.53;;;;;;;;;;5105589;27;20200;-75
2021/01/02 16:02:21;;;;;;;0.50;0.50;;;;;;;;;;5108813;27;20197;-75
2021/01/02 16:04:48;;;;;;;0.20;0.20;;;;;;;;;;5102800;27;20186;-76
2021/01/02 16:07:15;;;;;;;1.37;0.50;;;;;;;;;;5101237;28;20201;-76
2021/01/02 16:09:44;;;;;;;1.93;1.80;;;;;;;;;;5104121;27;20180;-77
2021/01/02 16:12:12;;;;;;;0.37;0.37;;;;;;;;;;5104843;27;21037;-76
2021/01/02 16:14:42;;;;;;;2.03;0.30;;;;;;;;;;5100896;28;20182;-75
2021/01/02 16:17:10;;;;;;;0.00;0.00;;;;;;;;;;5099584;28;20177;-75
2021/01/02 16:19:36;;;;;;;0.00;0.00;;;;;;;;;;5106604;27;20181;-66
2021/01/02 16:22:04;;;;;;;0.00;0.00;;;;;;;;;;5102331;27;20244;-71
2021/01/02 16:24:32;;;;;;;2.50;0.13;;;;;;;;;;5097658;28;20181;-65
2021/01/02 16:26:59;;;;;;;0.20;0.10;;;;;;;;;;5104306;27;20217;-74
2021/01/02 16:29:29;;;;;;;3.93;3.63;;;;;;;;;;5107245;27;20272;-73
2021/01/02 16:31:58;;;;;;;0.00;0.00;;;;;;;;;;5100918;28;20221;-64
2021/01/02 16:34:35;;;;;;;4.70;0.27;;;;;;;;;;5104489;27;20203;-64
2021/01/02 16:37:06;;;;;;;0.00;0.00;;;;;;;;;;5099042;27;20602;-65
2021/01/02 16:39:33;;;;;;;0.37;0.07;;;;;;;;;;5100531;27;20186;-65
2021/01/02 16:42:00;;;;;;;0.00;0.00;;;;;;;;;;5101806;28;20182;-64
2021/01/02 16:44:27;;;;;;;0.00;0.00;;;;;;;;;;5083676;28;20193;-64
2021/01/02 16:46:58;;;;;;;0.77;0.77;;;;;;;;;;5101060;27;20192;-72
2021/01/02 16:49:24;;;;;;;0.73;0.30;;;;;;;;;;5100376;28;20678;-71
2021/01/02 16:51:51;;;;;;;0.00;0.00;;;;;;;;;;5098570;28;20202;-67
2021/01/02 16:54:17;;;;;;;0.00;0.00;;;;;;;;;;5099252;27;20209;-65
2021/01/02 16:56:45;;;;;;;3.30;1.07;;;;;;;;;;5101151;27;20241;-64
2021/01/02 16:59:12;;;;;;;0.30;0.13;;;;;;;;;;5100492;27;20216;-72
2021/01/02 17:01:39;;;;;;;0.27;0.27;;;;;;;;;;5098912;27;20890;-73
2021/01/02 17:04:06;;;;;;;0.00;0.00;;;;;;;;;;5102113;27;20269;-72
2021/01/02 17:06:32;;;;;;;4.17;0.50;;;;;;;;;;5101511;27;20234;-72
2021/01/02 17:09:01;;;;;;;0.00;0.00;;;;;;;;;;5097823;27;20203;-73
2021/01/02 17:11:29;;;;;;;1.40;0.40;;;;;;;;;;5098157;27;20212;-73
2021/01/02 17:13:56;;;;;;;1.60;0.20;;;;;;;;;;5103180;27;20549;-72
2021/01/02 17:16:24;;;;;;;4.07;0.57;;;;;;;;;;5101324;27;20209;-72
2021/01/02 17:18:50;;;;;;;5.20;0.40;;;;;;;;;;5101032;28;20173;-73
2021/01/02 17:21:17;;;;;;;0.00;0.00;;;;;;;;;;5100475;28;20212;-73
2021/01/02 17:23:44;;;;;;;0.10;0.10;;;;;;;;;;5100310;28;20240;-75
2021/01/02 17:26:17;;;;;;;0.20;0.20;;;;;;;;;;5100289;28;20185;-76
2021/01/02 17:28:44;;;;;;;0.30;0.20;;;;;;;;;;5100298;28;20182;-75
2021/01/02 17:31:10;;;;;;;0.00;0.00;;;;;;;;;;5099434;28;20182;-75
2021/01/02 17:33:37;;;;;;;0.00;0.00;;;;;;;;;;5103364;27;20184;-75
2021/01/02 17:36:03;;;;;;;1.13;0.53;;;;;;;;;;5097368;28;20253;-74
2021/01/02 17:38:30;;;;;;;0.23;0.20;;;;;;;;;;5103260;27;20528;-73
2021/01/02 17:40:57;;;;;;;0.00;0.00;;;;;;;;;;5102671;27;20186;-72
2021/01/02 17:43:23;;;;;;;0.00;0.00;;;;;;;;;;5099962;28;20178;-71
2021/01/02 17:45:52;;;;;;;0.20;0.20;;;;;;;;;;5095476;28;20691;-66
2021/01/02 17:48:18;;;;;;;0.60;0.60;;;;;;;;;;5100616;28;20178;-66
2021/01/02 17:50:45;;;;;;;0.27;0.00;;;;;;;;;;5099134;28;20170;-66
2021/01/02 17:53:12;;;;;;;1.33;0.63;;;;;;;;;;5081013;28;20221;-66
2021/01/02 17:55:38;;;;;;;0.00;0.00;;;;;;;;;;5086199;28;20900;-65
2021/01/02 17:58:09;;;;;;;0.00;0.00;;;;;;;;;;5099379;28;20182;-72
2021/01/02 18:00:35;;;;;;;0.00;0.00;;;;;;;;;;5095995;28;20511;-72
2021/01/02 18:03:02;;;;;;;3.17;0.40;;;;;;;;;;5102515;27;20186;-66
2021/01/02 18:05:29;;;;;;;0.00;0.00;;;;;;;;;;5098344;28;20243;-65
2021/01/02 18:07:57;;;;;;;1.27;0.20;;;;;;;;;;5098924;28;20188;-66
2021/01/02 18:10:24;;;;;;;0.10;0.10;;;;;;;;;;5099895;28;20779;-64
2021/01/02 18:12:51;;;;;;;2.83;1.63;;;;;;;;;;5097820;28;20520;-63
2021/01/02 18:15:18;;;;;;;5.53;0.37;;;;;;;;;;5100364;28;20177;-65
2021/01/02 18:17:44;;;;;;;0.00;0.00;;;;;;;;;;5100448;28;20196;-64
2021/01/02 18:20:12;;;;;;;1.20;0.40;;;;;;;;;;5099913;28;20620;-72
2021/01/02 18:22:38;;;;;;;0.73;0.20;;;;;;;;;;5096550;28;20264;-72
2021/01/02 18:25:05;;;;;;;0.10;0.10;;;;;;;;;;5082851;28;20185;-66
2021/01/02 18:27:32;;;;;;;0.87;0.30;;;;;;;;;;5096560;28;20182;-65
2021/01/02 18:29:58;;;;;;;0.20;0.07;;;;;;;;;;5104079;28;20743;-66
2021/01/02 18:32:25;;;;;;;1.60;0.37;;;;;;;;;;5100033;28;20217;-66
2021/01/02 18:34:51;;;;;;;1.33;0.20;;;;;;;;;;5096292;28;20479;-74
2021/01/02 18:37:18;;;;;;;0.00;0.00;;;;;;;;;;5101123;28;20205;-73
2021/01/02 18:39:44;;;;;;;0.00;0.00;;;;;;;;;;5099844;28;20227;-73
2021/01/02 18:42:11;;;;;;;6.30;0.20;;;;;;;;;;5096019;28;20695;-73
2021/01/02 18:44:38;;;;;;;0.00;0.00;;;;;;;;;;5090401;28;20193;-73
2021/01/02 18:47:06;;;;;;;0.87;0.33;;;;;;;;;;5099897;28;20628;-73
2021/01/02 18:49:33;;;;;;;1.50;1.13;;;;;;;;;;5097527;28;20178;-72
2021/01/02 18:52:04;;;;;;;0.13;0.13;;;;;;;;;;5098616;28;20205;-71
2021/01/02 18:54:31;;;;;;;0.00;0.00;;;;;;;;;;5094492;28;20224;-72
2021/01/02 18:56:58;;;;;;;0.30;0.30;;;;;;;;;;5097244;28;20176;-71
2021/01/02 18:59:24;;;;;;;0.10;0.10;;;;;;;;;;5103016;28;20185;-64
2021/01/02 19:01:53;;;;;;;0.00;0.00;;;;;;;;;;5103303;28;20237;-73
2021/01/02 19:04:21;;;;;;;0.00;0.00;;;;;;;;;;5098165;27;20197;-62
2021/01/02 19:06:51;;;;;;;0.40;0.37;;;;;;;;;;5094710;28;20682;-63
2021/01/02 19:09:18;;;;;;;0.00;0.00;;;;;;;;;;5099356;27;20812;-61
2021/01/02 19:11:44;;;;;;;0.80;0.60;;;;;;;;;;5101058;28;20287;-61
2021/01/02 19:14:11;;;;;;;0.27;0.10;;;;;;;;;;5092625;27;20193;-64
2021/01/02 19:16:38;;;;;;;0.00;0.00;;;;;;;;;;5102522;27;20192;-61
2021/01/02 19:19:05;;;;;;;0.10;0.00;;;;;;;;;;5100182;27;20182;-62
2021/01/02 19:21:36;;;;;;;13.83;0.63;;;;;;;;;;5102215;27;20566;-61
2021/01/02 19:24:03;;;;;;;1.50;1.30;;;;;;;;;;5098566;27;20262;-61
2021/01/02 19:26:29;;;;;;;0.93;0.73;;;;;;;;;;5097098;27;20235;-66
2021/01/02 19:28:56;;;;;;;10.50;9.73;;;;;;;;;;5103945;27;20205;-66
2021/01/02 19:31:27;;;;;;;0.03;0.03;;;;;;;;;;5101092;27;20304;-65
2021/01/02 19:33:54;;;;;;;0.07;0.07;;;;;;;;;;5096429;27;20204;-65
2021/01/02 19:36:41;;;;;;;1.10;0.60;;;;;;;;;;5102257;27;20369;-65
2021/01/02 19:39:10;;;;;;;2.03;0.27;;;;;;;;;;5098060;27;20200;-61
2021/01/02 19:41:40;;;;;;;0.00;0.00;;;;;;;;;;5100185;28;20260;-62
2021/01/02 19:44:07;;;;;;;0.77;0.23;;;;;;;;;;5104374;27;20181;-61
2021/01/02 19:46:34;;;;;;;0.30;0.13;;;;;;;;;;5101786;28;20190;-62
2021/01/02 19:49:01;;;;;;;0.73;0.70;;;;;;;;;;5100655;28;20255;-62
2021/01/02 19:51:27;;;;;;;0.00;0.00;;;;;;;;;;5097604;28;20534;-62
2021/01/02 19:53:54;;;;;;;0.50;0.30;;;;;;;;;;5095209;27;20670;-62
2021/01/02 19:56:21;;;;;;;0.40;0.27;;;;;;;;;;5102022;27;20170;-60
2021/01/02 19:58:51;;;;;;;1.80;0.60;;;;;;;;;;5104673;27;20873;-62
2021/01/02 20:01:18;;;;;;;1.60;1.50;;;;;;;;;;5100472;28;20753;-60
2021/01/02 20:03:45;;;;;;;0.53;0.30;;;;;;;;;;5100327;28;20207;-65
2021/01/02 20:06:12;;;;;;;3.90;3.53;;;;;;;;;;5094120;28;21072;-65
2021/01/02 20:08:42;;;;;;;0.93;0.83;;;;;;;;;;5098823;28;20185;-65
2021/01/02 20:11:13;;;;;;;2.33;2.23;;;;;;;;;;5093949;28;20186;-61
2021/01/02 20:13:40;;;;;;;1.33;0.30;;;;;;;;;;5101066;28;20181;-65
2021/01/02 20:16:07;;;;;;;6.83;0.67;;;;;;;;;;5099214;28;20349;-64
2021/01/02 20:18:33;;;;;;;0.00;0.00;;;;;;;;;;5099976;28;20936;-64
2021/01/02 20:21:00;;;;;;;0.20;0.07;;;;;;;;;;5098980;28;20259;-65
2021/01/02 20:23:27;;;;;;;0.00;0.00;;;;;;;;;;5101062;28;20297;-66
2021/01/02 20:25:54;;;;;;;0.00;0.00;;;;;;;;;;5102953;28;20209;-67
2021/01/02 20:28:20;;;;;;;2.97;0.40;;;;;;;;;;5101856;28;20268;-67
2021/01/02 20:30:47;;;;;;;1.80;0.57;;;;;;;;;;5100231;28;20357;-62
2021/01/02 20:33:15;;;;;;;5.67;0.63;;;;;;;;;;5099076;28;20324;-62
2021/01/02 20:35:42;;;;;;;1.70;0.27;;;;;;;;;;5096012;28;20188;-62
2021/01/02 20:38:09;;;;;;;0.07;0.07;;;;;;;;;;5102465;28;20181;-62
2021/01/02 20:40:38;;;;;;;0.30;0.30;;;;;;;;;;5101755;28;20177;-60
2021/01/02 20:43:04;;;;;;;1.17;0.30;;;;;;;;;;5102603;28;20662;-60
2021/01/02 20:45:31;;;;;;;0.00;0.00;;;;;;;;;;5102128;28;20185;-61
2021/01/02 20:48:02;;;;;;;0.10;0.10;;;;;;;;;;5102466;28;20185;-62
2021/01/02 20:50:29;;;;;;;3.97;0.60;;;;;;;;;;5098752;28;20186;-60
2021/01/02 20:52:55;;;;;;;1.83;1.13;;;;;;;;;;5100601;28;20757;-63
2021/01/02 20:55:22;;;;;;;0.83;0.67;;;;;;;;;;5102021;28;20186;-61
2021/01/02 20:57:48;;;;;;;0.03;0.03;;;;;;;;;;5101195;28;20273;-62
2021/01/02 21:00:15;;;;;;;1.60;0.43;;;;;;;;;;5100628;28;20178;-61
2021/01/02 21:02:42;;;;;;;6.10;1.37;;;;;;;;;;5100753;28;20185;-62
2021/01/02 21:05:09;;;;;;;15.47;1.63;;;;;;;;;;5098269;28;20400;-61
2021/01/02 21:07:35;;;;;;;1.23;0.87;;;;;;;;;;5098266;28;20218;-60
2021/01/02 21:10:02;;;;;;;0.43;0.30;;;;;;;;;;5093933;28;20194;-61
2021/01/02 21:12:28;;;;;;;5.63;1.50;;;;;;;;;;5097912;28;20309;-67
2021/01/02 21:14:55;;;;;;;0.30;0.30;;;;;;;;;;5098416;28;20177;-66
2021/01/02 21:17:22;;;;;;;2.20;2.07;;;;;;;;;;5098625;28;20189;-64
2021/01/02 21:19:50;;;;;;;0.00;0.00;;;;;;;;;;5100446;28;20182;-66
2021/01/02 21:22:20;;;;;;;3.40;3.20;;;;;;;;;;5097820;28;20546;-65
2021/01/02 21:24:46;;;;;;;0.13;0.13;;;;;;;;;;5093282;28;20507;-66
2021/01/02 21:27:15;;;;;;;0.10;0.10;;;;;;;;;;5096883;27;20182;-66
2021/01/02 21:29:42;;;;;;;1.03;0.93;;;;;;;;;;5081738;28;20675;-67
2021/01/02 21:32:11;;;;;;;0.97;0.57;;;;;;;;;;5100580;28;20213;-66
2021/01/02 21:34:39;;;;;;;1.17;0.40;;;;;;;;;;5096991;28;20172;-67
2021/01/02 21:37:07;;;;;;;3.90;0.23;;;;;;;;;;5099476;28;20189;-62
2021/01/02 21:39:34;;;;;;;0.20;0.20;;;;;;;;;;5101300;27;20202;-65
2021/01/02 21:42:02;;;;;;;3.33;1.10;;;;;;;;;;5102462;27;20314;-61
2021/01/02 21:44:29;;;;;;;0.00;0.00;;;;;;;;;;5100139;27;20228;-62
2021/01/02 21:47:02;;;;;;;2.63;1.77;;;;;;;;;;5094832;27;20190;-64
2021/01/02 21:49:28;;;;;;;0.00;0.00;;;;;;;;;;5099895;28;20177;-65
2021/01/02 21:52:02;;;;;;;0.00;0.00;;;;;;;;;;5095242;28;20198;-67
2021/01/02 21:54:29;;;;;;;0.10;0.10;;;;;;;;;;5096340;28;20173;-61
2021/01/02 21:57:05;;;;;;;2.90;0.57;;;;;;;;;;5098312;28;20205;-62
2021/01/02 21:59:31;;;;;;;13.13;1.50;;;;;;;;;;5098970;28;20710;-62
2021/01/02 22:01:58;;;;;;;1.20;1.10;;;;;;;;;;5096698;28;20277;-61
2021/01/02 22:04:25;;;;;;;0.80;0.53;;;;;;;;;;5103415;27;20184;-63
2021/01/02 22:06:58;;;;;;;0.30;0.30;;;;;;;;;;5095463;28;20173;-64
2021/01/02 22:09:27;;;;;;;4.80;0.70;;;;;;;;;;5100070;28;20188;-65
2021/01/02 22:11:53;;;;;;;0.57;0.57;;;;;;;;;;5098286;28;20205;-62
2021/01/02 22:14:21;;;;;;;0.10;0.10;;;;;;;;;;5095908;28;20184;-66
2021/01/02 22:16:52;;;;;;;0.10;0.10;;;;;;;;;;5097964;28;20209;-65
2021/01/02 22:19:19;;;;;;;0.50;0.30;;;;;;;;;;5097732;28;20289;-62
2021/01/02 22:21:47;;;;;;;3.50;1.33;;;;;;;;;;5099173;28;20296;-62
2021/01/02 22:24:14;;;;;;;0.83;0.83;;;;;;;;;;5099762;28;20185;-64
2021/01/02 22:26:40;;;;;;;0.77;0.10;;;;;;;;;;5101866;28;20181;-63
2021/01/02 22:29:07;;;;;;;0.70;0.70;;;;;;;;;;5096357;28;20194;-62
2021/01/02 22:31:35;;;;;;;6.53;2.80;;;;;;;;;;5079259;28;20212;-64
2021/01/02 22:34:02;;;;;;;2.57;0.57;;;;;;;;;;5102442;28;20213;-65
2021/01/02 22:36:29;;;;;;;0.10;0.10;;;;;;;;;;5104989;27;20186;-65
2021/01/02 22:38:56;;;;;;;1.33;0.63;;;;;;;;;;5104725;27;20169;-66
2021/01/02 22:41:24;;;;;;;3.70;1.10;;;;;;;;;;5099202;27;20193;-75
2021/01/02 22:43:51;;;;;;;10.73;4.80;;;;;;;;;;5084332;28;20178;-71
2021/01/02 22:46:19;;;;;;;0.10;0.10;;;;;;;;;;5098482;27;20557;-71
2021/01/02 22:48:46;;;;;;;0.20;0.20;;;;;;;;;;5101791;27;20180;-72
2021/01/02 22:51:17;;;;;;;0.20;0.20;;;;;;;;;;5107522;27;20268;-74
2021/01/02 22:53:43;;;;;;;0.10;0.10;;;;;;;;;;5107443;27;20166;-75
2021/01/02 22:56:17;;;;;;;0.10;0.10;;;;;;;;;;5103938;27;20276;-73
2021/01/02 22:58:44;;;;;;;0.83;0.77;;;;;;;;;;5104414;28;20185;-73
2021/01/02 23:01:12;;;;;;;1.20;0.20;;;;;;;;;;5103270;28;20174;-76
2021/01/02 23:03:40;;;;;;;0.10;0.10;;;;;;;;;;5103903;27;20239;-76
2021/01/02 23:06:14;;;;;;;4.37;0.80;;;;;;;;;;5103500;27;20178;-76
2021/01/02 23:08:41;;;;;;;0.97;0.50;;;;;;;;;;5097867;28;20177;-72
2021/01/02 23:11:09;;;;;;;0.27;0.27;;;;;;;;;;5097647;28;20182;-73
2021/01/02 23:13:35;;;;;;;0.67;0.63;;;;;;;;;;5099703;28;20173;-74
2021/01/02 23:16:02;;;;;;;4.10;0.70;;;;;;;;;;5100499;27;20292;-73
2021/01/02 23:18:29;;;;;;;0.30;0.20;;;;;;;;;;5101423;28;20177;-73
2021/01/02 23:20:56;;;;;;;0.40;0.40;;;;;;;;;;5100933;28;20181;-73
2021/01/02 23:23:23;;;;;;;1.33;1.10;;;;;;;;;;5098972;28;20341;-73
2021/01/02 23:25:51;;;;;;;0.10;0.10;;;;;;;;;;5095981;27;20705;-73
2021/01/02 23:28:19;;;;;;;1.73;0.93;;;;;;;;;;5103479;28;20182;-74
2021/01/02 23:30:46;;;;;;;0.20;0.17;;;;;;;;;;5099861;28;20209;-73
2021/01/02 23:33:12;;;;;;;0.10;0.10;;;;;;;;;;5098932;27;20255;-73
2021/01/02 23:35:39;;;;;;;0.43;0.43;;;;;;;;;;5099430;27;20174;-72
2021/01/02 23:38:05;;;;;;;0.30;0.30;;;;;;;;;;5101081;27;20178;-73
2021/01/02 23:40:32;;;;;;;7.37;0.87;;;;;;;;;;5100095;28;20188;-72
2021/01/02 23:42:59;;;;;;;0.10;0.10;;;;;;;;;;5105031;27;20212;-73
2021/01/02 23:45:26;;;;;;;0.20;0.20;;;;;;;;;;5102173;27;20193;-69
2021/01/02 23:47:52;;;;;;;0.03;0.03;;;;;;;;;;5102204;27;20185;-70
2021/01/02 23:50:25;;;;;;;0.10;0.10;;;;;;;;;;5100815;27;20785;-68
2021/01/02 23:52:52;;;;;;;0.57;0.20;;;;;;;;;;5085708;28;20213;-68
2021/01/02 23:55:20;;;;;;;0.20;0.20;;;;;;;;;;5102806;28;20192;-70
2021/01/02 23:57:46;;;;;;;2.37;0.53;;;;;;;;;;5106433;27;20188;-70
